Edenville, Michigan
Current Conditions -  °F | °C
As of 9:34 AM on Sunday 23 Nov 2014 (Local Time) from KIKW Reporting Station
Overcast Overcast  
Wind Chill: 47°   Ceiling: 3100
Heat Index: 50°   Visibility: 10mi
Dew Point: 46°   Wind: 7mph
Humidity: 89%   Direction: 190°S
Pressure: 29.83"   Gusts: NA
Location:  43.8°N, 84.38°W
Report Text: KIKW 231434Z AUTO 19006KT 10SM BKN031 OVC050 10/08 A2983 RMK AO2 T00980080
Loading
Personal Weather Stations






























Interactive Weather Map New forecast layout! Learn more

10-Day Weather Forecast

Advertisements
Track Severe Weather on mobile